createdAt,value
2019-04-19T00:01:48.971Z,3.70
2019-04-19T00:04:16.156Z,3.87
2019-04-19T00:07:10.691Z,3.70
2019-04-19T00:09:43.623Z,3.87
2019-04-19T00:12:18.018Z,4.20
2019-04-19T00:14:37.902Z,4.50
2019-04-19T00:17:13.916Z,4.07
2019-04-19T00:19:55.552Z,4.20
2019-04-19T00:22:29.161Z,3.73
2019-04-19T00:24:43.719Z,4.33
2019-04-19T00:27:13.989Z,4.30
2019-04-19T00:29:52.903Z,4.23
2019-04-19T00:32:28.319Z,4.80
2019-04-19T00:34:46.368Z,4.40
2019-04-19T00:37:16.466Z,4.20
2019-04-19T00:40:18.186Z,4.53
2019-04-19T00:43:01.718Z,4.30
2019-04-19T00:45:41.673Z,4.37
2019-04-19T00:48:14.622Z,4.20
2019-04-19T00:50:48.288Z,4.43
2019-04-19T00:53:14.867Z,4.13
2019-04-19T00:55:44.109Z,3.93
2019-04-19T00:58:12.398Z,4.10
2019-04-19T01:00:40.331Z,4.23
2019-04-19T01:03:14.338Z,3.90
2019-04-19T01:05:52.421Z,3.77
2019-04-19T01:08:19.004Z,3.83
2019-04-19T01:11:02.510Z,3.80
2019-04-19T01:13:35.483Z,3.97
2019-04-19T01:16:01.394Z,4.07
2019-04-19T01:18:28.783Z,4.10
2019-04-19T01:20:50.128Z,3.83
2019-04-19T01:23:20.937Z,4.60
2019-04-19T01:25:55.005Z,4.00
2019-04-19T01:28:25.487Z,4.70
2019-04-19T01:30:52.948Z,4.00
2019-04-19T01:33:36.576Z,4.57
2019-04-19T01:36:04.309Z,4.30
2019-04-19T01:38:40.867Z,4.83
2019-04-19T01:41:22.067Z,4.03
2019-04-19T01:43:56.186Z,4.80
2019-04-19T01:46:49.011Z,4.87
2019-04-19T01:49:21.037Z,4.70
2019-04-19T01:52:18.122Z,4.47
2019-04-19T01:54:47.735Z,5.00
2019-04-19T01:57:05.432Z,5.20
2019-04-19T01:59:40.024Z,5.00
2019-04-19T02:02:11.672Z,4.80
2019-04-19T02:04:36.449Z,5.10
2019-04-19T02:07:12.500Z,4.93
2019-04-19T02:09:55.192Z,4.77
2019-04-19T02:12:23.664Z,5.07
2019-04-19T02:14:48.486Z,4.33
2019-04-19T02:17:13.646Z,4.97
2019-04-19T02:19:51.050Z,4.47
2019-04-19T02:22:21.052Z,4.67
2019-04-19T02:24:49.241Z,5.07
2019-04-19T02:27:17.998Z,4.93
2019-04-19T02:29:52.801Z,5.67
2019-04-19T02:32:39.421Z,5.37
2019-04-19T02:35:11.196Z,5.30
2019-04-19T02:37:43.818Z,5.10
2019-04-19T02:42:44.479Z,5.70
2019-04-19T02:45:21.350Z,5.70
2019-04-19T02:48:00.539Z,5.73
2019-04-19T02:50:21.654Z,6.00
2019-04-19T02:55:24.976Z,7.47
2019-04-19T02:58:06.553Z,6.13
2019-04-19T03:00:58.592Z,6.43
2019-04-19T03:03:22.906Z,6.33
2019-04-19T03:05:54.287Z,6.77
2019-04-19T03:08:06.102Z,7.73
2019-04-19T03:10:49.959Z,6.20
2019-04-19T03:13:21.534Z,5.90
2019-04-19T03:15:55.733Z,6.10
2019-04-19T03:18:30.678Z,5.90
2019-04-19T03:20:50.669Z,5.33
2019-04-19T03:23:23.442Z,5.23
2019-04-19T03:25:55.738Z,5.23
2019-04-19T03:28:22.104Z,5.33
2019-04-19T03:33:44.137Z,5.30
2019-04-19T03:36:05.412Z,5.70
2019-04-19T03:38:33.650Z,5.33
2019-04-19T03:41:09.138Z,6.80
2019-04-19T03:43:57.095Z,5.83
2019-04-19T03:46:29.180Z,5.20
2019-04-19T03:48:47.532Z,5.60
2019-04-19T03:51:15.372Z,5.67
2019-04-19T03:53:50.231Z,6.10
2019-04-19T03:56:30.049Z,6.73
2019-04-19T03:58:34.061Z,5.60
2019-04-19T04:01:04.584Z,5.80
2019-04-19T04:03:38.487Z,5.50
2019-04-19T04:06:06.238Z,5.60
2019-04-19T04:08:45.193Z,6.17
2019-04-19T04:11:29.798Z,5.80
2019-04-19T04:14:15.007Z,5.93
2019-04-19T04:16:53.780Z,5.63
2019-04-19T04:19:23.069Z,6.00
2019-04-19T04:21:54.353Z,6.30
2019-04-19T04:24:30.049Z,6.20
2019-04-19T04:27:05.760Z,6.83
2019-04-19T04:29:34.485Z,6.57
2019-04-19T04:32:09.607Z,8.53
2019-04-19T04:34:40.973Z,8.50
2019-04-19T04:37:16.787Z,8.90
2019-04-19T04:39:32.406Z,8.00
2019-04-19T04:42:11.190Z,9.10
2019-04-19T04:45:03.694Z,8.40
2019-04-19T04:47:55.970Z,7.70
2019-04-19T04:50:57.735Z,8.33
2019-04-19T04:53:10.937Z,10.47
2019-04-19T04:55:54.980Z,8.13
2019-04-19T04:58:23.133Z,8.67
2019-04-19T05:00:53.935Z,8.83
2019-04-19T05:03:40.037Z,9.13
2019-04-19T05:06:09.686Z,8.87
2019-04-19T05:08:38.920Z,8.80
2019-04-19T05:11:13.980Z,9.40
2019-04-19T05:13:47.245Z,8.60
2019-04-19T05:16:25.114Z,9.77
2019-04-19T05:18:40.151Z,8.97
2019-04-19T05:21:18.066Z,8.90
2019-04-19T05:23:55.462Z,11.77
2019-04-19T05:26:29.268Z,11.53
2019-04-19T05:28:47.757Z,12.93
2019-04-19T05:31:08.192Z,13.93
2019-04-19T05:33:47.682Z,14.10
2019-04-19T05:36:24.727Z,12.07
2019-04-19T05:39:17.307Z,11.37
2019-04-19T05:42:12.081Z,10.70
2019-04-19T05:45:09.735Z,11.33
2019-04-19T05:47:26.106Z,11.23
2019-04-19T05:50:00.856Z,11.27
2019-04-19T05:52:35.766Z,11.20
2019-04-19T05:54:45.093Z,10.80
2019-04-19T05:57:38.492Z,11.03
2019-04-19T05:59:54.848Z,10.20
2019-04-19T06:02:26.398Z,11.00
2019-04-19T06:05:10.119Z,11.20
2019-04-19T06:07:35.634Z,11.97
2019-04-19T06:09:50.114Z,12.73
2019-04-19T06:12:25.125Z,11.80
2019-04-19T06:15:13.645Z,11.53
2019-04-19T06:18:06.980Z,11.77
2019-04-19T06:20:38.415Z,13.67
2019-04-19T06:23:14.362Z,13.57
2019-04-19T06:25:57.242Z,14.37
2019-04-19T06:28:25.031Z,11.27
2019-04-19T06:30:45.477Z,11.83
2019-04-19T06:33:19.886Z,11.50
2019-04-19T06:35:40.433Z,13.23
2019-04-19T06:38:01.386Z,11.73
2019-04-19T06:40:34.191Z,13.40
2019-04-19T06:43:09.740Z,14.03
2019-04-19T06:45:50.385Z,42.67
2019-04-19T06:48:11.377Z,21.63
2019-04-19T06:50:41.245Z,12.83
2019-04-19T06:53:07.958Z,12.07
2019-04-19T06:55:44.122Z,10.33
2019-04-19T06:58:16.025Z,15.10
2019-04-19T07:00:54.588Z,10.50
2019-04-19T07:03:12.722Z,11.80
2019-04-19T07:05:55.585Z,10.38
2019-04-19T07:11:06.271Z,8.83
2019-04-19T07:13:31.597Z,9.83
2019-04-19T07:16:14.520Z,9.55
2019-04-19T07:18:36.123Z,8.15
2019-04-19T07:21:11.994Z,8.93
2019-04-19T07:23:38.588Z,8.25
2019-04-19T07:26:15.903Z,8.00
2019-04-19T07:28:27.080Z,7.15
2019-04-19T07:30:59.096Z,7.92
2019-04-19T07:33:36.111Z,9.33
2019-04-19T07:36:12.228Z,9.45
2019-04-19T07:38:46.479Z,9.55
2019-04-19T07:41:16.664Z,8.65
2019-04-19T07:44:02.489Z,8.50
2019-04-19T07:46:40.095Z,7.60
2019-04-19T07:48:55.510Z,7.17
2019-04-19T07:51:30.929Z,7.60
2019-04-19T07:53:57.186Z,8.38
2019-04-19T07:56:38.955Z,9.05
2019-04-19T07:59:30.607Z,8.10
2019-04-19T08:02:03.847Z,6.97
2019-04-19T08:04:48.886Z,7.40
2019-04-19T08:07:01.892Z,6.87
2019-04-19T08:29:27.897Z,6.62
2019-04-19T08:31:44.866Z,7.58
2019-04-19T08:34:20.676Z,8.05
2019-04-19T08:36:53.360Z,7.87
2019-04-19T08:40:38.190Z,7.15
2019-04-19T08:42:10.985Z,8.25
2019-04-19T08:44:36.261Z,7.10
2019-04-19T08:47:21.273Z,6.92
2019-04-19T08:49:49.932Z,6.85
2019-04-19T08:52:31.790Z,6.85
2019-04-19T08:55:21.797Z,7.25
2019-04-19T08:57:32.296Z,6.67
2019-04-19T09:00:25.956Z,6.60
2019-04-19T09:02:45.384Z,6.55
2019-04-19T09:05:18.737Z,7.15
2019-04-19T09:07:57.554Z,6.60
2019-04-19T09:10:31.791Z,6.50
2019-04-19T09:13:08.280Z,8.30
2019-04-19T09:15:24.092Z,6.92
2019-04-19T09:18:21.493Z,7.37
2019-04-19T09:20:34.073Z,5.90
2019-04-19T09:23:04.638Z,8.50
2019-04-19T09:26:00.467Z,8.98
2019-04-19T09:31:05.653Z,6.10
2019-04-19T09:33:28.129Z,6.12
2019-04-19T09:35:59.083Z,6.72
2019-04-19T09:38:41.128Z,6.60
2019-04-19T09:41:00.724Z,7.67
2019-04-19T09:43:39.549Z,7.12
2019-04-19T09:45:57.654Z,7.35
2019-04-19T09:48:50.409Z,15.43
2019-04-19T09:51:14.380Z,13.32
2019-04-19T09:53:51.932Z,5.70
2019-04-19T09:56:26.061Z,6.03
2019-04-19T09:58:46.459Z,8.58
2019-04-19T10:01:08.675Z,5.78
2019-04-19T10:03:46.974Z,5.45
2019-04-19T10:06:10.792Z,5.80
2019-04-19T10:08:40.326Z,4.90
2019-04-19T10:11:10.522Z,5.80
2019-04-19T10:13:40.154Z,5.17
2019-04-19T10:16:30.537Z,5.37
2019-04-19T10:19:05.783Z,5.20
2019-04-19T10:21:37.036Z,4.95
2019-04-19T10:24:11.712Z,5.50
2019-04-19T10:26:46.543Z,5.45
2019-04-19T10:29:23.356Z,5.55
2019-04-19T10:31:53.616Z,5.20
2019-04-19T10:34:22.850Z,5.17
2019-04-19T10:36:55.344Z,5.60
2019-04-19T10:39:25.845Z,5.03
2019-04-19T10:41:56.367Z,5.22
2019-04-19T10:44:27.163Z,6.72
2019-04-19T10:46:58.660Z,5.30
2019-04-19T10:49:36.278Z,5.08
2019-04-19T10:52:05.199Z,5.80
2019-04-19T10:54:34.618Z,5.05
2019-04-19T10:57:29.776Z,5.05
2019-04-19T11:00:01.588Z,6.50
2019-04-19T11:02:34.493Z,5.35
2019-04-19T11:05:07.049Z,5.45
2019-04-19T11:07:39.522Z,5.90
2019-04-19T11:10:09.710Z,6.05
2019-04-19T11:12:40.685Z,5.60
2019-04-19T11:15:10.793Z,5.00
2019-04-19T11:17:41.448Z,5.20
2019-04-19T11:20:22.693Z,5.53
2019-04-19T11:22:42.206Z,5.33
2019-04-19T11:25:14.649Z,5.70
2019-04-19T11:27:44.911Z,5.28
2019-04-19T11:30:32.944Z,5.17
2019-04-19T11:33:07.041Z,4.85
2019-04-19T11:35:43.425Z,4.37
2019-04-19T11:38:13.308Z,4.67
2019-04-19T11:40:42.887Z,5.78
2019-04-19T11:43:13.468Z,4.70
2019-04-19T11:45:44.029Z,4.72
2019-04-19T11:48:13.510Z,4.70
2019-04-19T11:50:42.859Z,4.87
2019-04-19T11:53:34.406Z,5.67
2019-04-19T11:56:22.706Z,5.00
2019-04-19T11:58:56.192Z,4.33
2019-04-19T12:01:30.041Z,4.25
2019-04-19T12:04:00.453Z,4.47
2019-04-19T12:06:30.253Z,4.45
2019-04-19T12:09:00.533Z,4.40
2019-04-19T12:11:30.572Z,5.70
2019-04-19T12:14:00.047Z,5.95
2019-04-19T12:16:29.411Z,4.50
2019-04-19T12:19:00.044Z,4.30
2019-04-19T12:21:29.608Z,4.00
2019-04-19T12:24:00.304Z,4.10
2019-04-19T12:26:29.750Z,4.00
2019-04-19T12:29:01.305Z,4.08
2019-04-19T12:31:30.184Z,4.67
2019-04-19T12:33:59.712Z,3.55
2019-04-19T12:36:29.263Z,3.70
2019-04-19T12:38:58.863Z,3.90
2019-04-19T12:41:28.252Z,4.17
2019-04-19T12:43:58.037Z,4.30
2019-04-19T12:46:28.677Z,4.22
2019-04-19T12:48:58.469Z,5.50
2019-04-19T12:51:28.099Z,4.08
2019-04-19T12:53:58.225Z,4.50
2019-04-19T12:56:27.661Z,4.45
2019-04-19T12:58:57.882Z,4.47
2019-04-19T13:01:39.795Z,4.25
2019-04-19T13:04:12.861Z,5.37
2019-04-19T13:06:50.398Z,4.73
2019-04-19T13:09:21.362Z,4.10
2019-04-19T13:11:50.734Z,3.80
2019-04-19T13:14:20.063Z,4.07
2019-04-19T13:16:50.501Z,5.20
2019-04-19T13:19:20.810Z,4.90
2019-04-19T13:21:50.348Z,5.67
2019-04-19T13:24:20.422Z,6.10
2019-04-19T13:26:49.947Z,6.10
2019-04-19T13:29:19.737Z,5.23
2019-04-19T13:31:49.155Z,3.90
2019-04-19T13:34:19.036Z,6.37
2019-04-19T13:37:07.441Z,5.10
2019-04-19T13:40:12.226Z,6.40
2019-04-19T13:42:41.855Z,5.57
2019-04-19T13:45:20.979Z,4.57
2019-04-19T13:47:42.946Z,6.53
2019-04-19T13:50:22.110Z,4.57
2019-04-19T13:52:44.378Z,4.90
2019-04-19T13:55:14.802Z,6.20
2019-04-19T13:57:44.254Z,5.17
2019-04-19T14:00:20.413Z,4.63
2019-04-19T14:02:49.894Z,4.40
2019-04-19T14:05:19.838Z,4.50
2019-04-19T14:07:49.221Z,4.63
2019-04-19T14:10:19.116Z,5.17
2019-04-19T14:12:49.216Z,5.03
2019-04-19T14:15:18.586Z,4.37
2019-04-19T14:17:47.913Z,4.50
2019-04-19T14:20:27.540Z,4.20
2019-04-19T14:22:49.696Z,4.10
2019-04-19T14:25:19.437Z,4.30
2019-04-19T14:27:49.088Z,4.40
2019-04-19T14:30:19.406Z,3.67
2019-04-19T14:32:49.527Z,3.33
2019-04-19T14:35:19.651Z,4.43
2019-04-19T14:37:50.059Z,4.40
2019-04-19T14:40:19.825Z,3.83
2019-04-19T14:42:49.181Z,4.00
2019-04-19T14:45:21.706Z,4.30
2019-04-19T14:47:51.190Z,3.93
2019-04-19T14:50:21.064Z,4.07
2019-04-19T14:52:51.356Z,3.20
2019-04-19T14:55:21.165Z,5.40
2019-04-19T14:57:51.970Z,4.00
2019-04-19T15:00:23.257Z,3.77
2019-04-19T15:03:00.778Z,3.50
2019-04-19T15:05:33.975Z,5.37
2019-04-19T15:08:04.454Z,4.27
2019-04-19T15:10:33.957Z,4.57
2019-04-19T15:13:03.407Z,5.30
2019-04-19T15:15:33.609Z,4.47
2019-04-19T15:18:04.361Z,6.53
2019-04-19T15:20:34.070Z,5.77
2019-04-19T15:23:04.424Z,5.43
2019-04-19T15:25:34.709Z,4.10
2019-04-19T15:28:04.573Z,5.00
2019-04-19T15:30:35.055Z,4.90
2019-04-19T15:33:04.640Z,5.17
2019-04-19T15:35:33.937Z,6.17
2019-04-19T15:38:03.670Z,4.67
2019-04-19T15:40:34.208Z,6.63
2019-04-19T15:43:03.749Z,6.20
2019-04-19T15:45:35.245Z,5.13
2019-04-19T15:48:04.897Z,5.87
2019-04-19T15:50:34.346Z,4.87
2019-04-19T15:53:04.138Z,5.27
2019-04-19T15:55:33.635Z,6.27
2019-04-19T15:58:04.202Z,4.60
2019-04-19T16:00:46.358Z,4.70
2019-04-19T16:03:34.604Z,6.37
2019-04-19T16:06:25.953Z,7.73
2019-04-19T16:09:15.181Z,7.60
2019-04-19T16:12:05.905Z,6.77
2019-04-19T16:14:35.672Z,6.17
2019-04-19T16:17:07.255Z,6.07
2019-04-19T16:19:36.814Z,5.87
2019-04-19T16:22:07.308Z,5.23
2019-04-19T16:24:37.283Z,7.80
2019-04-19T16:27:06.931Z,5.90
2019-04-19T16:29:43.248Z,7.33
2019-04-19T16:32:07.388Z,5.90
2019-04-19T16:34:36.724Z,6.80
2019-04-19T16:37:06.374Z,5.90
2019-04-19T16:39:35.733Z,6.17
2019-04-19T16:42:05.129Z,11.20
2019-04-19T16:44:36.297Z,7.17
2019-04-19T16:47:05.773Z,6.20
2019-04-19T16:49:36.199Z,7.13
2019-04-19T16:52:06.919Z,6.03
2019-04-19T16:54:36.430Z,11.20
2019-04-19T16:57:15.967Z,8.77
2019-04-19T16:59:37.711Z,5.87
2019-04-19T17:02:07.224Z,9.67
2019-04-19T17:04:36.750Z,4.13
2019-04-19T17:07:06.772Z,5.03
2019-04-19T17:09:36.596Z,11.23
2019-04-19T17:12:07.438Z,9.43
2019-04-19T17:14:36.961Z,6.90
2019-04-19T17:17:16.710Z,7.20
2019-04-19T17:19:52.978Z,7.97
2019-04-19T17:22:36.816Z,7.03
2019-04-19T17:25:08.276Z,8.50
2019-04-19T17:27:38.893Z,6.43
2019-04-19T17:30:10.402Z,6.90
2019-04-19T17:32:39.841Z,6.17
2019-04-19T17:35:12.153Z,6.47
2019-04-19T17:37:42.300Z,5.20
2019-04-19T17:40:12.200Z,5.40
2019-04-19T17:42:42.344Z,8.47
2019-04-19T17:45:12.011Z,13.33
2019-04-19T17:47:43.785Z,7.13
2019-04-19T17:50:12.538Z,5.70
2019-04-19T17:52:42.331Z,6.03
2019-04-19T17:55:20.783Z,6.73
2019-04-19T17:57:43.191Z,10.20
2019-04-19T18:00:12.840Z,6.70
2019-04-19T18:02:43.375Z,6.83
2019-04-19T18:05:13.945Z,6.47
2019-04-19T18:07:47.238Z,7.33
2019-04-19T18:10:18.310Z,6.50
2019-04-19T18:12:47.491Z,7.03
2019-04-19T18:15:17.270Z,8.07
2019-04-19T18:17:53.946Z,7.50
2019-04-19T18:20:20.033Z,9.03
2019-04-19T18:23:00.604Z,22.20
2019-04-19T18:25:22.049Z,11.00
2019-04-19T18:27:56.593Z,29.57
2019-04-19T18:30:24.181Z,6.30
2019-04-19T18:32:58.337Z,10.70
2019-04-19T18:35:30.873Z,15.60
2019-04-19T18:37:59.068Z,18.40
2019-04-19T18:40:29.044Z,12.70
2019-04-19T18:43:13.524Z,6.97
2019-04-19T18:45:32.204Z,6.03
2019-04-19T18:48:01.177Z,7.17
2019-04-19T18:50:32.920Z,7.93
2019-04-19T18:53:12.240Z,5.80
2019-04-19T18:55:38.407Z,6.07
2019-04-19T18:58:04.487Z,5.90
2019-04-19T19:00:41.261Z,5.10
2019-04-19T19:03:07.120Z,6.57
2019-04-19T19:05:44.076Z,5.90
2019-04-19T19:08:16.957Z,6.10
2019-04-19T19:10:46.523Z,5.63
2019-04-19T19:13:12.133Z,7.03
2019-04-19T19:15:46.700Z,8.00
2019-04-19T19:18:12.987Z,6.40
2019-04-19T19:20:50.793Z,6.67
2019-04-19T19:23:25.642Z,7.33
2019-04-19T19:25:55.079Z,8.43
2019-04-19T19:28:20.018Z,7.23
2019-04-19T19:30:49.096Z,7.40
2019-04-19T19:33:22.100Z,7.30
2019-04-19T19:35:55.500Z,7.63
2019-04-19T19:38:26.212Z,8.73
2019-04-19T19:41:07.209Z,6.43
2019-04-19T19:43:41.074Z,6.50
2019-04-19T19:46:19.095Z,6.67
2019-04-19T19:48:56.609Z,5.93
2019-04-19T19:51:25.429Z,6.50
2019-04-19T19:54:15.433Z,7.57
2019-04-19T19:58:36.839Z,12.43
2019-04-19T20:01:17.123Z,13.33
2019-04-19T20:03:38.666Z,9.13
2019-04-19T20:06:09.657Z,9.37
2019-04-19T20:08:39.217Z,9.33
2019-04-19T20:11:06.213Z,6.73
2019-04-19T20:13:41.389Z,6.63
2019-04-19T20:16:08.231Z,7.23
2019-04-19T20:18:41.964Z,6.50
2019-04-19T20:21:12.336Z,9.20
2019-04-19T20:23:55.302Z,6.73
2019-04-19T20:26:20.348Z,5.67
2019-04-19T20:28:43.132Z,6.10
2019-04-19T20:31:15.936Z,6.17
2019-04-19T20:33:50.991Z,5.63
2019-04-19T20:36:14.839Z,5.90
2019-04-19T20:38:50.735Z,7.13
2019-04-19T20:41:16.416Z,8.20
2019-04-19T20:43:57.168Z,9.23
2019-04-19T20:46:21.871Z,9.73
2019-04-19T20:48:54.062Z,9.63
2019-04-19T20:51:40.349Z,9.23
2019-04-19T20:54:10.471Z,9.33
2019-04-19T20:56:51.367Z,8.87
2019-04-19T20:59:01.902Z,8.97
2019-04-19T21:01:32.818Z,9.93
2019-04-19T21:04:05.953Z,11.27
2019-04-19T21:06:36.721Z,9.37
2019-04-19T21:09:05.396Z,9.80
2019-04-19T21:11:40.976Z,9.77
2019-04-19T21:14:07.120Z,11.13
2019-04-19T21:16:37.499Z,10.77
2019-04-19T21:19:09.594Z,11.03
2019-04-19T21:21:41.024Z,10.57
2019-04-19T21:24:11.941Z,10.07
2019-04-19T21:26:41.490Z,10.40
2019-04-19T21:29:18.261Z,9.97
2019-04-19T21:31:47.757Z,11.27
2019-04-19T21:34:15.633Z,10.83
2019-04-19T21:36:53.052Z,11.00
2019-04-19T21:39:18.350Z,11.30
2019-04-19T21:41:48.607Z,11.93
2019-04-19T21:44:24.563Z,11.97
2019-04-19T21:46:54.134Z,12.10
2019-04-19T21:49:24.789Z,9.70
2019-04-19T21:51:57.924Z,10.83
2019-04-19T21:54:26.448Z,9.67
2019-04-19T21:56:56.321Z,9.90
2019-04-19T21:59:30.252Z,10.07
2019-04-19T22:01:57.208Z,9.30
2019-04-19T22:04:27.535Z,9.03
2019-04-19T22:07:01.109Z,9.77
2019-04-19T22:09:28.839Z,10.33
2019-04-19T22:11:58.892Z,11.03
2019-04-19T22:14:32.888Z,8.67
2019-04-19T22:17:01.015Z,9.17
2019-04-19T22:19:34.981Z,8.50
2019-04-19T22:22:01.429Z,7.67
2019-04-19T22:24:34.155Z,7.57
2019-04-19T22:27:03.101Z,7.07
2019-04-19T22:29:33.577Z,7.83
2019-04-19T22:32:08.491Z,7.07
2019-04-19T22:34:34.714Z,7.03
2019-04-19T22:37:06.420Z,7.03
2019-04-19T22:39:35.159Z,7.47
2019-04-19T22:42:04.628Z,6.63
2019-04-19T22:44:34.648Z,7.60
2019-04-19T22:47:04.063Z,7.00
2019-04-19T22:49:39.057Z,9.10
2019-04-19T22:52:04.790Z,8.20
2019-04-19T22:54:34.960Z,7.40
2019-04-19T22:57:13.561Z,7.63
2019-04-19T22:59:35.828Z,7.83
2019-04-19T23:02:14.519Z,8.13
2019-04-19T23:04:49.308Z,7.57
2019-04-19T23:07:16.576Z,7.57
2019-04-19T23:09:46.407Z,7.57
2019-04-19T23:12:16.599Z,7.70
2019-04-19T23:14:52.049Z,8.13
2019-04-19T23:17:28.126Z,7.70
2019-04-19T23:19:53.739Z,8.33
2019-04-19T23:22:30.686Z,7.53
2019-04-19T23:25:00.034Z,8.53
2019-04-19T23:27:37.957Z,8.20
2019-04-19T23:30:15.145Z,14.30
2019-04-19T23:32:41.181Z,11.67
2019-04-19T23:35:10.542Z,8.27
2019-04-19T23:37:41.772Z,8.20
2019-04-19T23:40:11.402Z,7.90
2019-04-19T23:42:42.335Z,8.90
2019-04-19T23:45:12.607Z,8.57
2019-04-19T23:47:46.464Z,7.90
2019-04-19T23:50:13.231Z,8.13
2019-04-19T23:52:48.622Z,7.57
2019-04-19T23:55:14.631Z,7.80
2019-04-19T23:57:48.513Z,8.10
